MOL Sparkle — 3EWX3 — position and weather

sailwx.info

Track history (hours):
 
Tides and Currents Weather Stations Pressure Air Temp Water Temp Dewpoint Dewpoint Depression Visibility Wind Speed Wind Dir Waves Ship Positions

MOL Sparkle

Last reported at 2017-Dec-03 08:09 UTC. Time now 2017-Dec-13 14:51 UTC.
Position N 25°21' E 120°44'.
Warning: this ship's position is 10 days out of date.

Length 199 m; draft 8.9 m.

Type: Ship (hazmat cat B). MMSI: 372800000.

Date/timePositionNaut miles runAvg speedWind from/ knotsBaromVisibWave heightAir tempDewpointWater temp
2017-Dec-03 08:09N 25°21' E 120°44'319.2
2017-Dec-03 08:00N 25°23' E 120°46'  
2017-Nov-30 18:43N 34°19' E 129°51'511.0
2017-Nov-30 18:17N 34°15' E 129°54'411.1
2017-Nov-30 17:57N 34°12' E 129°56'510.9
2017-Nov-30 17:30N 34°08' E 129°59'510.9
2017-Nov-30 17:00N 34°03' E 130°02'611.0
2017-Nov-30 16:30N 33°58' E 130°05'611.2
2017-Nov-30 16:00N 33°53' E 130°08'511.0
2017-Nov-30 15:30N 33°48' E 130°11'611.1
2017-Nov-30 15:00N 33°43' E 130°14'611.1
2017-Nov-30 14:30N 33°39' E 130°18'5 9.6
2017-Nov-30 14:00N 33°39' E 130°24'1 1.1
2017-Nov-30 13:28N 33°39' E 130°25'0 0.0
2017-Nov-30 12:58N 33°39' E 130°25'0 0.0
2017-Nov-30 12:28N 33°39' E 130°25'0 0.0
2017-Nov-30 11:58N 33°39' E 130°25'0 0.0
2017-Nov-30 11:28N 33°39' E 130°25'0 0.0
2017-Nov-30 10:58N 33°39' E 130°25'0 0.0
2017-Nov-30 10:28N 33°39' E 130°25'0 0.0
2017-Nov-30 09:58N 33°39' E 130°25'0 0.0
2017-Nov-30 09:28N 33°39' E 130°25'0 0.0
2017-Nov-30 08:58N 33°39' E 130°25'0 0.0
2017-Nov-30 08:25N 33°39' E 130°25'0 0.0
2017-Nov-30 07:58N 33°39' E 130°25'0 0.0
2017-Nov-30 07:28N 33°39' E 130°25'1 1.2
2017-Nov-30 07:01N 33°39' E 130°24'4 7.2
2017-Nov-30 06:30N 33°38' E 130°20'4 8.7
2017-Nov-30 06:00N 33°41' E 130°15'612.8
2017-Nov-30 05:30N 33°47' E 130°12'612.9
2017-Nov-30 05:01N 33°53' E 130°15'816.9
2017-Nov-30 04:31N 33°59' E 130°22'1019.4
2017-Nov-30 04:00N 34°03' E 130°32'1019.7
2017-Nov-30 03:31N 34°03' E 130°44'816.1
2017-Nov-30 03:00N 33°59' E 130°53'4 7.9
2017-Nov-30 02:30N 33°55' E 130°53'4 7.9
2017-Nov-30 02:01N 33°58' E 130°57'5 9.1
2017-Nov-30 01:31N 33°57' E 131°03'611.4
2017-Nov-30 01:00N 33°54' E 131°08'917.8
2017-Nov-30 00:30N 33°51' E 131°18'918.1
2017-Nov-30 00:01N 33°49' E 131°29'918.2
2017-Nov-29 23:30N 33°47' E 131°40'917.4
2017-Nov-29 23:00N 33°40' E 131°47'918.3
2017-Nov-29 22:31N 33°32' E 131°52'917.6
2017-Nov-29 22:00N 33°24' E 131°56'917.5
2017-Nov-29 21:30N 33°16' E 132°01'5 9.9
2017-Nov-29 20:59N 33°11' E 132°01'6615.1
2017-Nov-29 16:35N 32°45' E 133°14'221.3
2017-Nov-29 16:30N 32°46' E 133°16'18820.6
2017-Nov-29 07:20N 34°02' E 136°43'2022.1
2017-Nov-29 06:25N 34°17' E 136°59'1120.8
2017-Nov-29 05:54N 34°27' E 137°03'1314.4
2017-Nov-29 05:01N 34°38' E 136°54'218.8
2017-Nov-29 04:53N 34°39' E 136°52'718.4
2017-Nov-29 04:30N 34°45' E 136°47'918.7
2017-Nov-29 04:00N 34°54' E 136°44'713.0
2017-Nov-29 03:30N 34°60' E 136°40'0 0.3
2017-Nov-29 02:54N 34°60' E 136°40'0 0.0
2017-Nov-29 02:30N 34°60' E 136°40'0 0.0
2017-Nov-29 02:00N 34°60' E 136°40'0 0.0
2017-Nov-29 01:30N 34°60' E 136°40'0 0.0
2017-Nov-29 01:00N 34°60' E 136°40'1 1.3
2017-Nov-29 00:30N 34°59' E 136°41'510.1
2017-Nov-29 00:01N 34°58' E 136°47'5 9.4
2017-Nov-28 23:31N 35°01' E 136°50'0 0.6
2017-Nov-28 23:00N 35°02' E 136°49'0 0.0
2017-Nov-28 22:30N 35°02' E 136°49'0 0.0
2017-Nov-28 22:00N 35°02' E 136°49'0 0.0
2017-Nov-28 21:30N 35°02' E 136°49'0 0.0
2017-Nov-28 21:00N 35°02' E 136°49'0 0.0
2017-Nov-28 20:30N 35°02' E 136°49'0 0.0
2017-Nov-28 20:00N 35°02' E 136°49'0 0.0
2017-Nov-28 19:30N 35°02' E 136°49'0 0.0
2017-Nov-28 19:00N 35°02' E 136°49'0 0.0
2017-Nov-28 18:30N 35°02' E 136°49'0 0.0
2017-Nov-28 18:00N 35°02' E 136°49'0 0.0
2017-Nov-28 17:30N 35°02' E 136°49'0 0.0
2017-Nov-28 17:00N 35°02' E 136°49'0 0.2
2017-Nov-28 16:31N 35°02' E 136°49'2 3.3
2017-Nov-28 16:01N 34°60' E 136°49'1313.3
2017-Nov-28 15:00N 34°47' E 136°48'815.7
2017-Nov-28 14:30N 34°40' E 136°53'815.8
2017-Nov-28 13:59N 34°34' E 137°00'712.0
2017-Nov-28 13:24N 34°30' E 137°07'711.2
2017-Nov-28 12:46N 34°27' E 137°15'516.9
2017-Nov-28 12:30N 34°27' E 137°20'1119.0
2017-Nov-28 11:54N 34°27' E 137°34'920.2
2017-Nov-28 11:29N 34°27' E 137°44'1020.4
2017-Nov-28 11:00N 34°28' E 137°56'1020.2
2017-Nov-28 10:30N 34°28' E 138°08'1020.1
2017-Nov-28 10:00N 34°29' E 138°21'917.9
2017-Nov-28 09:31N 34°37' E 138°23'1020.3
2017-Nov-28 09:01N 34°47' E 138°28'1020.7
2017-Nov-28 08:30N 34°57' E 138°32'510.2
2017-Nov-28 08:00N 35°02' E 138°31'1 1.9
2017-Nov-28 07:30N 35°02' E 138°31'0 0.0
2017-Nov-28 07:00N 35°02' E 138°31'0 0.0
2017-Nov-28 06:30N 35°02' E 138°31'0 0.0
2017-Nov-28 06:00N 35°02' E 138°31'0 0.0
2017-Nov-28 05:30N 35°02' E 138°31'0 0.0
2017-Nov-28 04:30N 35°02' E 138°31'0 0.0
2017-Nov-28 04:00N 35°02' E 138°31'0 0.0
2017-Nov-28 03:30N 35°02' E 138°31'0 0.0
2017-Nov-28 03:00N 35°02' E 138°31'1 1.8
2017-Nov-28 02:30N 35°02' E 138°32'3 6.6
2017-Nov-28 02:01N 34°59' E 138°34'510.5
2017-Nov-28 01:30N 34°54' E 138°36'612.5
2017-Nov-28 01:01N 34°48' E 138°37'612.9
2017-Nov-28 00:30N 34°42' E 138°40'713.3
2017-Nov-28 00:00N 34°37' E 138°45'714.3
2017-Nov-27 23:31N 34°33' E 138°52'714.8
2017-Nov-27 23:00N 34°33' E 139°01'815.8
2017-Nov-27 22:30N 34°35' E 139°11'816.8
2017-Nov-27 22:00N 34°37' E 139°20'815.5
2017-Nov-27 21:29N 34°39' E 139°30'816.0
2017-Nov-27 20:57N 34°47' E 139°34'816.6
2017-Nov-27 20:30N 34°54' E 139°38'816.9
2017-Nov-27 20:00N 35°02' E 139°40'816.4
2017-Nov-27 19:30N 35°09' E 139°45'612.2
2017-Nov-27 19:01N 35°15' E 139°46'612.3
2017-Nov-27 18:31N 35°20' E 139°42'612.9
2017-Nov-27 18:00N 35°27' E 139°41'0 0.6
2017-Nov-27 17:29N 35°26' E 139°41'0 0.0
2017-Nov-27 16:59N 35°26' E 139°41'0 0.0
2017-Nov-27 16:29N 35°26' E 139°41'0 0.0
2017-Nov-27 15:59N 35°26' E 139°41'0 0.0
2017-Nov-27 15:29N 35°26' E 139°41'0 0.0
2017-Nov-27 14:59N 35°26' E 139°41'0 0.0
2017-Nov-27 14:29N 35°26' E 139°41'0 0.0
2017-Nov-27 13:56N 35°26' E 139°41'0 0.0
2017-Nov-27 13:29N 35°26' E 139°41'0 0.0
2017-Nov-27 12:59N 35°26' E 139°41'0 0.0
2017-Nov-27 12:29N 35°26' E 139°41'0 0.0
2017-Nov-27 11:59N 35°26' E 139°41'0 0.0
2017-Nov-27 11:29N 35°26' E 139°41'0 0.4
2017-Nov-27 11:00N 35°27' E 139°41'2 4.2
2017-Nov-27 10:30N 35°26' E 139°43'4 8.1
2017-Nov-27 10:01N 35°28' E 139°48'612.3
2017-Nov-27 09:31N 35°34' E 139°49'4 7.5
2017-Nov-27 09:00N 35°36' E 139°46'0 0.3
2017-Nov-27 08:29N 35°36' E 139°46'0 0.0
2017-Nov-27 07:59N 35°36' E 139°46'0 0.0
2017-Nov-27 07:29N 35°36' E 139°46'0 0.0
2017-Nov-27 06:59N 35°36' E 139°46'0 0.0
2017-Nov-27 06:29N 35°36' E 139°46'0 0.0
2017-Nov-27 05:59N 35°36' E 139°46'0 0.0
2017-Nov-27 05:26N 35°36' E 139°46'0 0.0
2017-Nov-27 04:59N 35°36' E 139°46'0 0.0
2017-Nov-27 04:29N 35°36' E 139°46'0 0.0
2017-Nov-27 03:59N 35°36' E 139°46'0 0.0
2017-Nov-27 03:29N 35°36' E 139°46'0 0.0
2017-Nov-27 02:59N 35°36' E 139°46'0 0.0
2017-Nov-27 02:29N 35°36' E 139°46'0 0.0
2017-Nov-27 01:59N 35°36' E 139°46'0 0.0
2017-Nov-27 01:29N 35°36' E 139°46'0 0.0
2017-Nov-27 00:59N 35°36' E 139°46'0 0.0
2017-Nov-27 00:29N 35°36' E 139°46'0 0.0
2017-Nov-26 23:59N 35°36' E 139°46'0 0.0
2017-Nov-26 23:29N 35°36' E 139°46'0 0.0
2017-Nov-26 22:59N 35°36' E 139°46'1 1.8
2017-Nov-26 22:30N 35°36' E 139°47'5 9.1
2017-Nov-26 22:00N 35°33' E 139°51'5 9.3
2017-Nov-26 21:31N 35°28' E 139°51'713.6
2017-Nov-26 21:00N 35°23' E 139°46'611.6
2017-Nov-26 20:30N 35°17' E 139°45'612.2
2017-Nov-26 20:00N 35°11' E 139°47'5 9.5
2017-Nov-26 19:30N 35°07' E 139°46'5 9.3
2017-Nov-26 19:01N 35°02' E 139°44'612.7
2017-Nov-26 18:30N 34°56' E 139°41'714.0
2017-Nov-26 18:00N 34°50' E 139°37'714.0
2017-Nov-26 17:29N 34°43' E 139°33'714.5
2017-Nov-26 17:00N 34°37' E 139°29'916.4
2017-Nov-26 16:29N 34°36' E 139°19'816.4
2017-Nov-26 16:00N 34°33' E 139°10'816.0
2017-Nov-26 15:30N 34°28' E 139°02'815.9
2017-Nov-26 14:59N 34°23' E 138°53'815.9
2017-Nov-26 14:30N 34°19' E 138°45'815.8
2017-Nov-26 13:59N 34°15' E 138°37'815.8
2017-Nov-26 13:30N 34°11' E 138°30'815.4
2017-Nov-26 13:00N 34°06' E 138°22'815.6
2017-Nov-26 12:29N 34°02' E 138°14'  
Track history (hours):
 
Tides and Currents Weather Stations Pressure Air Temp Water Temp Dewpoint Dewpoint Depression Visibility Wind Speed Wind Dir Waves Ship Positions

MOL Sparkle

Last reported at 2017-Dec-03 08:09 UTC. Time now 2017-Dec-13 14:51 UTC.
Position N 25°21' E 120°44'.
Warning: this ship's position is 10 days out of date.

Length 199 m; draft 8.9 m.

Type: Ship (hazmat cat B). MMSI: 372800000.

Date/timePositionNaut miles runAvg speedWind from/ knotsBaromVisibWave heightAir tempDewpointWater temp
2017-Dec-03 08:09N 25°21' E 120°44'319.2
2017-Dec-03 08:00N 25°23' E 120°46'  
2017-Nov-30 18:43N 34°19' E 129°51'511.0
2017-Nov-30 18:17N 34°15' E 129°54'411.1
2017-Nov-30 17:57N 34°12' E 129°56'510.9
2017-Nov-30 17:30N 34°08' E 129°59'510.9
2017-Nov-30 17:00N 34°03' E 130°02'611.0
2017-Nov-30 16:30N 33°58' E 130°05'611.2
2017-Nov-30 16:00N 33°53' E 130°08'511.0
2017-Nov-30 15:30N 33°48' E 130°11'611.1
2017-Nov-30 15:00N 33°43' E 130°14'611.1
2017-Nov-30 14:30N 33°39' E 130°18'5 9.6
2017-Nov-30 14:00N 33°39' E 130°24'1 1.1
2017-Nov-30 13:28N 33°39' E 130°25'0 0.0
2017-Nov-30 12:58N 33°39' E 130°25'0 0.0
2017-Nov-30 12:28N 33°39' E 130°25'0 0.0
2017-Nov-30 11:58N 33°39' E 130°25'0 0.0
2017-Nov-30 11:28N 33°39' E 130°25'0 0.0
2017-Nov-30 10:58N 33°39' E 130°25'0 0.0
2017-Nov-30 10:28N 33°39' E 130°25'0 0.0
2017-Nov-30 09:58N 33°39' E 130°25'0 0.0
2017-Nov-30 09:28N 33°39' E 130°25'0 0.0
2017-Nov-30 08:58N 33°39' E 130°25'0 0.0
2017-Nov-30 08:25N 33°39' E 130°25'0 0.0
2017-Nov-30 07:58N 33°39' E 130°25'0 0.0
2017-Nov-30 07:28N 33°39' E 130°25'1 1.2
2017-Nov-30 07:01N 33°39' E 130°24'4 7.2
2017-Nov-30 06:30N 33°38' E 130°20'4 8.7
2017-Nov-30 06:00N 33°41' E 130°15'612.8
2017-Nov-30 05:30N 33°47' E 130°12'612.9
2017-Nov-30 05:01N 33°53' E 130°15'816.9
2017-Nov-30 04:31N 33°59' E 130°22'1019.4
2017-Nov-30 04:00N 34°03' E 130°32'1019.7
2017-Nov-30 03:31N 34°03' E 130°44'816.1
2017-Nov-30 03:00N 33°59' E 130°53'4 7.9
2017-Nov-30 02:30N 33°55' E 130°53'4 7.9
2017-Nov-30 02:01N 33°58' E 130°57'5 9.1
2017-Nov-30 01:31N 33°57' E 131°03'611.4
2017-Nov-30 01:00N 33°54' E 131°08'917.8
2017-Nov-30 00:30N 33°51' E 131°18'918.1
2017-Nov-30 00:01N 33°49' E 131°29'918.2
2017-Nov-29 23:30N 33°47' E 131°40'917.4
2017-Nov-29 23:00N 33°40' E 131°47'918.3
2017-Nov-29 22:31N 33°32' E 131°52'917.6
2017-Nov-29 22:00N 33°24' E 131°56'917.5
2017-Nov-29 21:30N 33°16' E 132°01'5 9.9
2017-Nov-29 20:59N 33°11' E 132°01'6615.1
2017-Nov-29 16:35N 32°45' E 133°14'221.3
2017-Nov-29 16:30N 32°46' E 133°16'18820.6
2017-Nov-29 07:20N 34°02' E 136°43'2022.1
2017-Nov-29 06:25N 34°17' E 136°59'1120.8
2017-Nov-29 05:54N 34°27' E 137°03'1314.4
2017-Nov-29 05:01N 34°38' E 136°54'218.8
2017-Nov-29 04:53N 34°39' E 136°52'718.4
2017-Nov-29 04:30N 34°45' E 136°47'918.7
2017-Nov-29 04:00N 34°54' E 136°44'713.0
2017-Nov-29 03:30N 34°60' E 136°40'0 0.3
2017-Nov-29 02:54N 34°60' E 136°40'0 0.0
2017-Nov-29 02:30N 34°60' E 136°40'0 0.0
2017-Nov-29 02:00N 34°60' E 136°40'0 0.0
2017-Nov-29 01:30N 34°60' E 136°40'0 0.0
2017-Nov-29 01:00N 34°60' E 136°40'1 1.3
2017-Nov-29 00:30N 34°59' E 136°41'510.1
2017-Nov-29 00:01N 34°58' E 136°47'5 9.4
2017-Nov-28 23:31N 35°01' E 136°50'0 0.6
2017-Nov-28 23:00N 35°02' E 136°49'0 0.0
2017-Nov-28 22:30N 35°02' E 136°49'0 0.0
2017-Nov-28 22:00N 35°02' E 136°49'0 0.0
2017-Nov-28 21:30N 35°02' E 136°49'0 0.0
2017-Nov-28 21:00N 35°02' E 136°49'0 0.0
2017-Nov-28 20:30N 35°02' E 136°49'0 0.0
2017-Nov-28 20:00N 35°02' E 136°49'0 0.0
2017-Nov-28 19:30N 35°02' E 136°49'0 0.0
2017-Nov-28 19:00N 35°02' E 136°49'0 0.0
2017-Nov-28 18:30N 35°02' E 136°49'0 0.0
2017-Nov-28 18:00N 35°02' E 136°49'0 0.0
2017-Nov-28 17:30N 35°02' E 136°49'0 0.0
2017-Nov-28 17:00N 35°02' E 136°49'0 0.2
2017-Nov-28 16:31N 35°02' E 136°49'2 3.3
2017-Nov-28 16:01N 34°60' E 136°49'1313.3
2017-Nov-28 15:00N 34°47' E 136°48'815.7
2017-Nov-28 14:30N 34°40' E 136°53'815.8
2017-Nov-28 13:59N 34°34' E 137°00'712.0
2017-Nov-28 13:24N 34°30' E 137°07'711.2
2017-Nov-28 12:46N 34°27' E 137°15'516.9
2017-Nov-28 12:30N 34°27' E 137°20'1119.0
2017-Nov-28 11:54N 34°27' E 137°34'920.2
2017-Nov-28 11:29N 34°27' E 137°44'1020.4
2017-Nov-28 11:00N 34°28' E 137°56'1020.2
2017-Nov-28 10:30N 34°28' E 138°08'1020.1
2017-Nov-28 10:00N 34°29' E 138°21'917.9
2017-Nov-28 09:31N 34°37' E 138°23'1020.3
2017-Nov-28 09:01N 34°47' E 138°28'1020.7
2017-Nov-28 08:30N 34°57' E 138°32'510.2
2017-Nov-28 08:00N 35°02' E 138°31'1 1.9
2017-Nov-28 07:30N 35°02' E 138°31'0 0.0
2017-Nov-28 07:00N 35°02' E 138°31'0 0.0
2017-Nov-28 06:30N 35°02' E 138°31'0 0.0
2017-Nov-28 06:00N 35°02' E 138°31'0 0.0
2017-Nov-28 05:30N 35°02' E 138°31'0 0.0
2017-Nov-28 04:30N 35°02' E 138°31'0 0.0
2017-Nov-28 04:00N 35°02' E 138°31'0 0.0
2017-Nov-28 03:30N 35°02' E 138°31'0 0.0
2017-Nov-28 03:00N 35°02' E 138°31'1 1.8
2017-Nov-28 02:30N 35°02' E 138°32'3 6.6
2017-Nov-28 02:01N 34°59' E 138°34'510.5
2017-Nov-28 01:30N 34°54' E 138°36'612.5
2017-Nov-28 01:01N 34°48' E 138°37'612.9
2017-Nov-28 00:30N 34°42' E 138°40'713.3
2017-Nov-28 00:00N 34°37' E 138°45'714.3
2017-Nov-27 23:31N 34°33' E 138°52'714.8
2017-Nov-27 23:00N 34°33' E 139°01'815.8
2017-Nov-27 22:30N 34°35' E 139°11'816.8
2017-Nov-27 22:00N 34°37' E 139°20'815.5
2017-Nov-27 21:29N 34°39' E 139°30'816.0
2017-Nov-27 20:57N 34°47' E 139°34'816.6
2017-Nov-27 20:30N 34°54' E 139°38'816.9
2017-Nov-27 20:00N 35°02' E 139°40'816.4
2017-Nov-27 19:30N 35°09' E 139°45'612.2
2017-Nov-27 19:01N 35°15' E 139°46'612.3
2017-Nov-27 18:31N 35°20' E 139°42'612.9
2017-Nov-27 18:00N 35°27' E 139°41'0 0.6
2017-Nov-27 17:29N 35°26' E 139°41'0 0.0
2017-Nov-27 16:59N 35°26' E 139°41'0 0.0
2017-Nov-27 16:29N 35°26' E 139°41'0 0.0
2017-Nov-27 15:59N 35°26' E 139°41'0 0.0
2017-Nov-27 15:29N 35°26' E 139°41'0 0.0
2017-Nov-27 14:59N 35°26' E 139°41'0 0.0
2017-Nov-27 14:29N 35°26' E 139°41'0 0.0
2017-Nov-27 13:56N 35°26' E 139°41'0 0.0
2017-Nov-27 13:29N 35°26' E 139°41'0 0.0
2017-Nov-27 12:59N 35°26' E 139°41'0 0.0
2017-Nov-27 12:29N 35°26' E 139°41'0 0.0
2017-Nov-27 11:59N 35°26' E 139°41'0 0.0
2017-Nov-27 11:29N 35°26' E 139°41'0 0.4
2017-Nov-27 11:00N 35°27' E 139°41'2 4.2
2017-Nov-27 10:30N 35°26' E 139°43'4 8.1
2017-Nov-27 10:01N 35°28' E 139°48'612.3
2017-Nov-27 09:31N 35°34' E 139°49'4 7.5
2017-Nov-27 09:00N 35°36' E 139°46'0 0.3
2017-Nov-27 08:29N 35°36' E 139°46'0 0.0
2017-Nov-27 07:59N 35°36' E 139°46'0 0.0
2017-Nov-27 07:29N 35°36' E 139°46'0 0.0
2017-Nov-27 06:59N 35°36' E 139°46'0 0.0
2017-Nov-27 06:29N 35°36' E 139°46'0 0.0
2017-Nov-27 05:59N 35°36' E 139°46'0 0.0
2017-Nov-27 05:26N 35°36' E 139°46'0 0.0
2017-Nov-27 04:59N 35°36' E 139°46'0 0.0
2017-Nov-27 04:29N 35°36' E 139°46'0 0.0
2017-Nov-27 03:59N 35°36' E 139°46'0 0.0
2017-Nov-27 03:29N 35°36' E 139°46'0 0.0
2017-Nov-27 02:59N 35°36' E 139°46'0 0.0
2017-Nov-27 02:29N 35°36' E 139°46'0 0.0
2017-Nov-27 01:59N 35°36' E 139°46'0 0.0
2017-Nov-27 01:29N 35°36' E 139°46'0 0.0
2017-Nov-27 00:59N 35°36' E 139°46'0 0.0
2017-Nov-27 00:29N 35°36' E 139°46'0 0.0
2017-Nov-26 23:59N 35°36' E 139°46'0 0.0
2017-Nov-26 23:29N 35°36' E 139°46'0 0.0
2017-Nov-26 22:59N 35°36' E 139°46'1 1.8
2017-Nov-26 22:30N 35°36' E 139°47'5 9.1
2017-Nov-26 22:00N 35°33' E 139°51'5 9.3
2017-Nov-26 21:31N 35°28' E 139°51'713.6
2017-Nov-26 21:00N 35°23' E 139°46'611.6
2017-Nov-26 20:30N 35°17' E 139°45'612.2
2017-Nov-26 20:00N 35°11' E 139°47'5 9.5
2017-Nov-26 19:30N 35°07' E 139°46'5 9.3
2017-Nov-26 19:01N 35°02' E 139°44'612.7
2017-Nov-26 18:30N 34°56' E 139°41'714.0
2017-Nov-26 18:00N 34°50' E 139°37'714.0
2017-Nov-26 17:29N 34°43' E 139°33'714.5
2017-Nov-26 17:00N 34°37' E 139°29'916.4
2017-Nov-26 16:29N 34°36' E 139°19'816.4
2017-Nov-26 16:00N 34°33' E 139°10'816.0
2017-Nov-26 15:30N 34°28' E 139°02'815.9
2017-Nov-26 14:59N 34°23' E 138°53'815.9
2017-Nov-26 14:30N 34°19' E 138°45'815.8
2017-Nov-26 13:59N 34°15' E 138°37'815.8
2017-Nov-26 13:30N 34°11' E 138°30'815.4
2017-Nov-26 13:00N 34°06' E 138°22'815.6
2017-Nov-26 12:29N 34°02' E 138°14'  

Dump ship's entire track history